地図

経路データ

SID SEASON NUMBER BASIN SUBBASIN NAME ISO_TIME NATURE LAT LON WMO_WIND WMO_PRES WMO_AGENCY TRACK_TYPE DIST2LAND LANDFALL IFLAG USA_AGENCY USA_ATCF_ID USA_LAT USA_LON USA_RECORD USA_STATUS USA_WIND USA_PRES USA_SSHS USA_R34_NE USA_R34_SE USA_R34_SW USA_R34_NW USA_R50_NE USA_R50_SE USA_R50_SW USA_R50_NW USA_R64_NE USA_R64_SE USA_R64_SW USA_R64_NW USA_POCI USA_ROCI USA_RMW USA_EYE TOKYO_LAT TOKYO_LON TOKYO_GRADE TOKYO_WIND TOKYO_PRES TOKYO_R50_DIR TOKYO_R50_LONG TOKYO_R50_SHORT TOKYO_R30_DIR TOKYO_R30_LONG TOKYO_R30_SHORT TOKYO_LAND CMA_LAT CMA_LON CMA_CAT CMA_WIND CMA_PRES HKO_LAT HKO_LON HKO_CAT HKO_WIND HKO_PRES NEWDELHI_LAT NEWDELHI_LON NEWDELHI_GRADE NEWDELHI_WIND NEWDELHI_PRES NEWDELHI_CI NEWDELHI_DP NEWDELHI_POCI REUNION_LAT REUNION_LON REUNION_TYPE REUNION_WIND REUNION_PRES REUNION_TNUM REUNION_CI REUNION_RMW REUNION_R34_NE REUNION_R34_SE REUNION_R34_SW REUNION_R34_NW REUNION_R50_NE REUNION_R50_SE REUNION_R50_SW REUNION_R50_NW REUNION_R64_NE REUNION_R64_SE REUNION_R64_SW REUNION_R64_NW BOM_LAT BOM_LON BOM_TYPE BOM_WIND BOM_PRES BOM_TNUM BOM_CI BOM_RMW BOM_R34_NE BOM_R34_SE BOM_R34_SW BOM_R34_NW BOM_R50_NE BOM_R50_SE BOM_R50_SW BOM_R50_NW BOM_R64_NE BOM_R64_SE BOM_R64_SW BOM_R64_NW BOM_ROCI BOM_POCI BOM_EYE BOM_POS_METHOD BOM_PRES_METHOD NADI_LAT NADI_LON NADI_CAT NADI_WIND NADI_PRES WELLINGTON_LAT WELLINGTON_LON WELLINGTON_WIND WELLINGTON_PRES DS824_LAT DS824_LON DS824_STAGE DS824_WIND DS824_PRES TD9636_LAT TD9636_LON TD9636_STAGE TD9636_WIND TD9636_PRES TD9635_LAT TD9635_LON TD9635_WIND TD9635_PRES TD9635_ROCI NEUMANN_LAT NEUMANN_LON NEUMANN_CLASS NEUMANN_WIND NEUMANN_PRES MLC_LAT MLC_LON MLC_CLASS MLC_WIND MLC_PRES USA_GUST BOM_GUST BOM_GUST_PER REUNION_GUST REUNION_GUST_PER USA_SEAHGT USA_SEARAD_NE USA_SEARAD_SE USA_SEARAD_SW USA_SEARAD_NW STORM_SPEED STORM_DIR
1932194N14114 1932 34 WP MM NOT_NAMED 1932-07-12 10:00:00 NR 14.1000 114.200 main 525 518 __________O___ -1 14.1000 114.200 2 6 326
1932194N14114 1932 34 WP MM NOT_NAMED 1932-07-12 12:00:00 NR 14.2565 114.091 main 519 500 __________P___ -1 14.2565 114.091 2 6 325
1932194N14114 1932 34 WP MM NOT_NAMED 1932-07-12 15:00:00 NR 14.4887 113.917 main 500 482 __________P___ -1 14.4887 113.917 2 6 322
1932194N14114 1932 34 WP MM NOT_NAMED 1932-07-12 18:00:00 NR 14.7148 113.721 main 482 466 __________P___ -1 14.7148 113.721 2 6 317
1932194N14114 1932 34 WP MM NOT_NAMED 1932-07-12 21:00:00 NR 14.9308 113.488 main 466 458 __________P___ -1 14.9308 113.488 2 6 313
1932194N14114 1932 34 WP MM NOT_NAMED 1932-07-12 22:00:00 NR 15.0000 113.400 main 458 440 __________O___ -1 15.0000 113.400 2 7 307
1932194N14114 1932 34 WP MM NOT_NAMED 1932-07-13 00:00:00 NR 15.1333 113.206 main 440 413 __________P___ -1 15.1333 113.206 2 7 302
1932194N14114 1932 34 WP MM NOT_NAMED 1932-07-13 03:00:00 NR 15.3208 112.878 main 413 375 __________P___ -1 15.3208 112.878 2 8 298
1932194N14114 1932 34 WP MM NOT_NAMED 1932-07-13 06:00:00 NR 15.4933 112.515 main 375 340 __________P___ -1 15.4933 112.515 2 8 295
1932194N14114 1932 34 WP MM NOT_NAMED 1932-07-13 09:00:00 NR 15.6508 112.131 main 340 330 __________P___ -1 15.6508 112.131 2 8 293
1932194N14114 1932 34 WP MM NOT_NAMED 1932-07-13 10:00:00 NR 15.7000 112.000 main 330 304 __________O___ -1 15.7000 112.000 2 9 292
1932194N14114 1932 34 WP MM NOT_NAMED 1932-07-13 12:00:00 NR 15.8081 111.719 main 304 268 __________P___ -1 15.8081 111.719 2 9 291
1932194N14114 1932 34 WP MM NOT_NAMED 1932-07-13 15:00:00 NR 15.9578 111.283 main 272 236 __________P___ -1 15.9578 111.283 2 9 289
1932194N14114 1932 34 WP MM NOT_NAMED 1932-07-13 18:00:00 NR 16.0842 110.865 main 236 204 __________P___ -1 16.0842 110.865 2 8 286
1932194N14114 1932 34 WP MM NOT_NAMED 1932-07-13 21:00:00 NR 16.1777 110.502 main 204 195 __________P___ -1 16.1777 110.502 2 7 284
1932194N14114 1932 34 WP MM NOT_NAMED 1932-07-13 22:00:00 NR 16.2000 110.400 main 195 178 __________O___ -1 16.2000 110.400 2 5 281
1932194N14114 1932 34 WP MM NOT_NAMED 1932-07-14 00:00:00 NR 16.2256 110.245 main 178 170 __________P___ -1 16.2256 110.245 2 4 276
1932194N14114 1932 34 WP MM NOT_NAMED 1932-07-14 03:00:00 NR 16.2326 110.077 main 170 162 __________P___ -1 16.2326 110.077 2 3 269
1932194N14114 1932 34 WP MM NOT_NAMED 1932-07-14 06:00:00 NR 16.2188 109.953 main 162 147 __________P___ -1 16.2188 109.953 2 2 263
1932194N14114 1932 34 WP MM NOT_NAMED 1932-07-14 09:00:00 NR 16.2027 109.841 main 147 147 __________P___ -1 16.2027 109.841 2 2 263
1932194N14114 1932 34 WP MM NOT_NAMED 1932-07-14 10:00:00 NR 16.2000 109.800 main 147 139 __________O___ -1 16.2000 109.800 2 3 269
1932194N14114 1932 34 WP MM NOT_NAMED 1932-07-14 12:00:00 NR 16.2005 109.681 main 139 123 __________P___ -1 16.2005 109.681 2 4 271
1932194N14114 1932 34 WP MM NOT_NAMED 1932-07-14 15:00:00 NR 16.2073 109.496 main 123 106 __________P___ -1 16.2073 109.496 2 4 275
1932194N14114 1932 34 WP MM NOT_NAMED 1932-07-14 18:00:00 NR 16.2297 109.315 main 106 91 __________P___ -1 16.2297 109.315 2 3 282
1932194N14114 1932 34 WP MM NOT_NAMED 1932-07-14 21:00:00 NR 16.2770 109.149 main 91 91 __________P___ -1 16.2770 109.149 2 3 289
1932194N14114 1932 34 WP MM NOT_NAMED 1932-07-14 22:00:00 NR 16.3000 109.100 main 91 81 __________O___ -1 16.3000 109.100 2 3 301
1932194N14114 1932 34 WP MM NOT_NAMED 1932-07-15 00:00:00 NR 16.3526 109.016 main 87 78 __________P___ -1 16.3526 109.016 2 3 311
1932194N14114 1932 34 WP MM NOT_NAMED 1932-07-15 03:00:00 NR 16.4565 108.909 main 85 77 __________P___ -1 16.4565 108.909 2 3 321
1932194N14114 1932 34 WP MM NOT_NAMED 1932-07-15 06:00:00 NR 16.5878 108.817 main 85 85 __________P___ -1 16.5878 108.817 2 3 329
1932194N14114 1932 34 WP MM NOT_NAMED 1932-07-15 09:00:00 NR 16.7433 108.730 main 85 92 __________P___ -1 16.7433 108.730 2 4 332
1932194N14114 1932 34 WP MM NOT_NAMED 1932-07-15 10:00:00 NR 16.8000 108.700 main 92 92 __________O___ -1 16.8000 108.700 2 4 335
1932194N14114 1932 34 WP MM NOT_NAMED 1932-07-15 12:00:00 NR 16.9293 108.641 main 94 94 __________P___ -1 16.9293 108.641 2 4 337
1932194N14114 1932 34 WP MM NOT_NAMED 1932-07-15 15:00:00 NR 17.1424 108.553 main 113 116 __________P___ -1 17.1424 108.553 2 5 337
1932194N14114 1932 34 WP MM NOT_NAMED 1932-07-15 18:00:00 NR 17.3564 108.457 main 123 116 __________P___ -1 17.3564 108.457 2 5 334
1932194N14114 1932 34 WP MM NOT_NAMED 1932-07-15 21:00:00 NR 17.5464 108.343 main 119 109 __________P___ -1 17.5464 108.343 2 4 329
1932194N14114 1932 34 WP MM NOT_NAMED 1932-07-15 22:00:00 NR 17.6000 108.300 main 109 103 __________O___ -1 17.6000 108.300 2 4 313
1932194N14114 1932 34 WP MM NOT_NAMED 1932-07-16 00:00:00 NR 17.6786 108.193 main 103 103 __________P___ -1 17.6786 108.193 2 4 301
1932194N14114 1932 34 WP MM NOT_NAMED 1932-07-16 03:00:00 NR 17.7650 108.012 main 107 107 __________P___ -1 17.7650 108.012 2 4 293
1932194N14114 1932 34 WP MM NOT_NAMED 1932-07-16 06:00:00 NR 17.8273 107.826 main 107 107 __________P___ -1 17.8273 107.826 2 4 289
1932194N14114 1932 34 WP MM NOT_NAMED 1932-07-16 09:00:00 NR 17.8812 107.652 main 109 104 __________P___ -1 17.8812 107.652 2 3 289
1932194N14114 1932 34 WP MM NOT_NAMED 1932-07-16 10:00:00 NR 17.9000 107.600 main 104 99 __________O___ -1 17.9000 107.600 2 3 294
1932194N14114 1932 34 WP MM NOT_NAMED 1932-07-16 12:00:00 NR 17.9415 107.508 main 99 95 __________P___ -1 17.9415 107.508 2 3 300
1932194N14114 1932 34 WP MM NOT_NAMED 1932-07-16 15:00:00 NR 18.0121 107.395 main 95 87 __________P___ -1 18.0121 107.395 2 2 308
1932194N14114 1932 34 WP MM NOT_NAMED 1932-07-16 18:00:00 NR 18.0901 107.304 main 87 77 __________P___ -1 18.0901 107.304 2 2 315
1932194N14114 1932 34 WP MM NOT_NAMED 1932-07-16 21:00:00 NR 18.1722 107.225 main 81 81 __________P___ -1 18.1722 107.225 2 2 318
1932194N14114 1932 34 WP MM NOT_NAMED 1932-07-16 22:00:00 NR 18.2000 107.200 main 81 __________O___ -1 18.2000 107.200 2 2 0

デジタル台風データ・検索

IBTrACS Databaseについて

本データベースは、米国NOAAが公開する1842年以降の世界の熱帯低気圧のベストトラックデータアーカイブInternational Best Track Archive for Climate Stewardship (IBTrACS)を、ウェブで閲覧しやすい形式に変換したものです。

最終更新日:2021-12-03